createdAt,value
2023-05-19T00:01:52.480Z,1.20
2023-05-19T00:04:19.837Z,1.20
2023-05-19T00:06:49.323Z,1.50
2023-05-19T00:09:16.692Z,1.58
2023-05-19T00:11:44.073Z,1.35
2023-05-19T00:14:11.333Z,1.55
2023-05-19T00:16:38.830Z,2.10
2023-05-19T00:19:06.726Z,1.30
2023-05-19T00:21:33.964Z,1.42
2023-05-19T00:24:01.308Z,1.27
2023-05-19T00:26:28.513Z,1.30
2023-05-19T00:28:55.961Z,1.02
2023-05-19T00:31:23.258Z,1.50
2023-05-19T00:33:50.485Z,1.10
2023-05-19T00:36:17.832Z,1.20
2023-05-19T00:38:45.001Z,1.38
2023-05-19T00:41:12.162Z,1.60
2023-05-19T00:43:39.376Z,1.50
2023-05-19T00:46:07.513Z,1.23
2023-05-19T00:48:34.822Z,1.48
2023-05-19T00:51:04.059Z,1.48
2023-05-19T00:53:35.462Z,1.20
2023-05-19T00:56:03.707Z,1.05
2023-05-19T00:58:32.725Z,1.23
2023-05-19T01:01:06.812Z,1.35
2023-05-19T01:03:35.648Z,1.10
2023-05-19T01:08:36.332Z,1.40
2023-05-19T01:11:03.710Z,1.20
2023-05-19T01:13:31.465Z,1.33
2023-05-19T01:16:17.484Z,1.38
2023-05-19T01:18:48.206Z,1.35
2023-05-19T01:21:16.008Z,1.25
2023-05-19T01:23:54.217Z,1.10
2023-05-19T01:26:44.292Z,1.20
2023-05-19T01:29:23.591Z,1.10
2023-05-19T01:31:51.144Z,1.35
2023-05-19T01:34:19.424Z,1.30
2023-05-19T01:36:49.908Z,1.30
2023-05-19T01:39:17.439Z,1.20
2023-05-19T01:41:45.485Z,1.05
2023-05-19T01:44:13.006Z,1.30
2023-05-19T01:46:40.622Z,1.27
2023-05-19T01:49:08.508Z,1.13
2023-05-19T01:51:36.342Z,1.52
2023-05-19T01:54:03.621Z,1.30
2023-05-19T01:56:35.247Z,1.08
2023-05-19T01:59:07.992Z,1.30
2023-05-19T02:01:39.140Z,1.10
2023-05-19T02:04:12.551Z,1.35
2023-05-19T02:06:46.877Z,1.20
2023-05-19T02:09:27.921Z,1.08
2023-05-19T02:12:11.055Z,1.05
2023-05-19T02:14:46.385Z,1.40
2023-05-19T02:17:15.811Z,1.10
2023-05-19T02:19:44.219Z,1.02
2023-05-19T02:22:11.414Z,1.02
2023-05-19T02:24:39.449Z,1.10
2023-05-19T02:27:06.732Z,1.10
2023-05-19T02:29:33.935Z,1.20
2023-05-19T02:32:02.319Z,1.00
2023-05-19T02:34:29.577Z,1.10
2023-05-19T02:36:56.778Z,1.10
2023-05-19T02:39:23.952Z,1.30
2023-05-19T02:41:51.283Z,1.30
2023-05-19T02:44:18.485Z,1.25
2023-05-19T02:46:46.106Z,1.30
2023-05-19T02:49:13.441Z,0.90
2023-05-19T02:51:40.652Z,1.02
2023-05-19T02:54:07.979Z,1.13
2023-05-19T02:56:35.238Z,1.00
2023-05-19T02:59:02.506Z,1.10
2023-05-19T03:01:29.660Z,0.88
2023-05-19T03:03:56.833Z,1.00
2023-05-19T03:06:24.358Z,1.17
2023-05-19T03:08:51.784Z,1.25
2023-05-19T03:11:18.955Z,1.10
2023-05-19T03:13:46.156Z,0.90
2023-05-19T03:16:14.075Z,0.95
2023-05-19T03:18:42.141Z,0.82
2023-05-19T03:21:09.515Z,1.20
2023-05-19T03:23:36.725Z,0.95
2023-05-19T03:26:04.266Z,0.88
2023-05-19T03:28:31.505Z,1.13
2023-05-19T03:30:58.664Z,0.90
2023-05-19T03:33:28.041Z,1.20
2023-05-19T03:35:57.630Z,0.95
2023-05-19T03:38:24.786Z,1.10
2023-05-19T03:40:51.930Z,1.10
2023-05-19T03:43:19.185Z,1.00
2023-05-19T03:45:46.467Z,1.08
2023-05-19T03:48:15.871Z,1.38
2023-05-19T03:50:44.539Z,1.10
2023-05-19T03:53:11.748Z,0.80
2023-05-19T03:55:39.648Z,1.20
2023-05-19T03:58:06.810Z,0.88
2023-05-19T04:00:34.258Z,1.73
2023-05-19T04:03:01.911Z,1.15
2023-05-19T04:05:29.142Z,1.02
2023-05-19T04:07:56.517Z,0.98
2023-05-19T04:10:23.690Z,1.10
2023-05-19T04:12:50.885Z,0.95
2023-05-19T04:15:18.087Z,0.80
2023-05-19T04:17:45.427Z,1.00
2023-05-19T04:20:12.842Z,0.98
2023-05-19T04:22:39.946Z,0.95
2023-05-19T04:25:07.597Z,1.25
2023-05-19T04:27:39.347Z,1.13
2023-05-19T04:30:06.903Z,0.98
2023-05-19T04:32:34.118Z,1.17
2023-05-19T04:35:01.481Z,1.10
2023-05-19T04:37:30.001Z,1.00
2023-05-19T04:39:57.337Z,0.80
2023-05-19T04:42:26.333Z,1.00
2023-05-19T04:44:53.546Z,1.40
2023-05-19T04:47:21.576Z,1.70
2023-05-19T04:49:48.930Z,1.58
2023-05-19T04:52:21.701Z,1.30
2023-05-19T04:54:48.901Z,1.42
2023-05-19T04:57:16.077Z,1.17
2023-05-19T04:59:43.341Z,1.27
2023-05-19T05:02:10.825Z,1.20
2023-05-19T05:04:40.544Z,1.40
2023-05-19T05:07:07.664Z,0.80
2023-05-19T05:09:35.797Z,1.10
2023-05-19T05:12:03.533Z,1.20
2023-05-19T05:14:30.902Z,0.88
2023-05-19T05:16:58.339Z,1.30
2023-05-19T05:19:25.701Z,1.40
2023-05-19T05:21:53.098Z,1.35
2023-05-19T05:24:20.468Z,1.17
2023-05-19T05:26:47.774Z,1.38
2023-05-19T05:29:14.904Z,1.15
2023-05-19T05:31:42.107Z,1.30
2023-05-19T05:34:09.345Z,1.02
2023-05-19T05:36:36.476Z,1.05
2023-05-19T05:39:03.908Z,1.02
2023-05-19T05:41:35.283Z,1.02
2023-05-19T05:44:03.009Z,1.10
2023-05-19T05:46:30.569Z,1.08
2023-05-19T05:48:57.878Z,1.00
2023-05-19T05:51:25.778Z,1.00
2023-05-19T05:53:53.873Z,0.90
2023-05-19T05:56:22.163Z,1.17
2023-05-19T05:58:49.703Z,1.05
2023-05-19T06:01:17.724Z,1.08
2023-05-19T06:03:45.024Z,0.95
2023-05-19T06:06:12.491Z,0.90
2023-05-19T06:08:39.697Z,1.02
2023-05-19T06:11:09.798Z,1.02
2023-05-19T06:13:37.368Z,1.27
2023-05-19T06:16:04.882Z,0.82
2023-05-19T06:18:32.500Z,1.00
2023-05-19T06:20:59.728Z,0.80
2023-05-19T06:23:29.030Z,1.30
2023-05-19T06:25:56.695Z,1.20
2023-05-19T06:28:23.838Z,1.00
2023-05-19T06:30:51.022Z,1.10
2023-05-19T06:33:18.480Z,1.25
2023-05-19T06:35:45.684Z,1.20
2023-05-19T06:38:12.859Z,0.90
2023-05-19T06:40:40.125Z,1.13
2023-05-19T06:43:07.377Z,1.08
2023-05-19T06:45:34.629Z,1.30
2023-05-19T06:48:01.923Z,0.90
2023-05-19T06:50:29.153Z,1.30
2023-05-19T06:52:58.505Z,1.40
2023-05-19T06:55:25.881Z,0.98
2023-05-19T06:57:53.007Z,1.23
2023-05-19T07:00:22.973Z,1.20
2023-05-19T07:02:51.383Z,1.10
2023-05-19T07:05:18.630Z,1.20
2023-05-19T07:07:45.873Z,1.25
2023-05-19T07:10:13.041Z,1.30
2023-05-19T07:12:40.286Z,1.08
2023-05-19T07:15:07.764Z,1.42
2023-05-19T07:17:34.977Z,1.10
2023-05-19T07:20:02.291Z,1.20
2023-05-19T07:22:30.139Z,1.25
2023-05-19T07:24:57.432Z,1.10
2023-05-19T07:27:24.656Z,1.40
2023-05-19T07:29:54.304Z,1.20
2023-05-19T07:32:21.528Z,1.38
2023-05-19T07:34:48.818Z,1.20
2023-05-19T07:37:16.624Z,1.23
2023-05-19T07:39:45.720Z,1.20
2023-05-19T07:42:12.921Z,1.40
2023-05-19T07:44:40.163Z,1.25
2023-05-19T07:47:07.395Z,1.33
2023-05-19T07:49:34.783Z,1.40
2023-05-19T07:52:01.979Z,1.40
2023-05-19T07:54:29.289Z,1.23
2023-05-19T07:56:56.501Z,1.30
2023-05-19T07:59:24.395Z,1.30
2023-05-19T08:01:52.161Z,1.10
2023-05-19T08:04:19.547Z,1.30
2023-05-19T08:06:46.850Z,1.60
2023-05-19T08:09:14.019Z,1.52
2023-05-19T08:11:41.483Z,1.67
2023-05-19T08:14:08.662Z,1.20
2023-05-19T08:16:35.957Z,1.60
2023-05-19T08:19:05.403Z,1.60
2023-05-19T08:21:35.479Z,1.48
2023-05-19T08:24:02.682Z,1.52
2023-05-19T08:26:30.081Z,1.50
2023-05-19T08:28:57.248Z,1.42
2023-05-19T08:31:25.080Z,1.40
2023-05-19T08:33:52.661Z,1.40
2023-05-19T08:36:20.094Z,1.40
2023-05-19T08:38:47.287Z,1.30
2023-05-19T08:41:14.508Z,1.38
2023-05-19T08:43:41.682Z,1.38
2023-05-19T08:46:10.586Z,1.58
2023-05-19T08:51:07.711Z,1.73
2023-05-19T08:53:38.112Z,1.40
2023-05-19T08:56:12.886Z,1.52
2023-05-19T08:58:41.580Z,1.60
2023-05-19T09:01:09.369Z,1.10
2023-05-19T09:03:38.162Z,1.35
2023-05-19T09:11:00.652Z,1.55
2023-05-19T09:13:27.945Z,1.20
2023-05-19T09:15:57.106Z,1.40
2023-05-19T09:18:26.098Z,1.10
2023-05-19T09:21:00.359Z,1.30
2023-05-19T09:23:32.589Z,1.20
2023-05-19T09:26:02.348Z,1.13
2023-05-19T09:28:36.560Z,1.20
2023-05-19T09:31:03.883Z,1.02
2023-05-19T09:33:31.621Z,1.15
2023-05-19T09:35:59.001Z,1.20
2023-05-19T09:38:27.033Z,1.02
2023-05-19T09:40:54.688Z,1.10
2023-05-19T09:43:22.157Z,1.23
2023-05-19T09:45:53.072Z,1.10
2023-05-19T09:48:20.239Z,1.08
2023-05-19T09:50:51.628Z,1.17
2023-05-19T09:53:19.090Z,1.00
2023-05-19T09:55:46.614Z,1.25
2023-05-19T09:58:18.067Z,1.27
2023-05-19T10:00:46.051Z,0.82
2023-05-19T10:03:13.265Z,1.08
2023-05-19T10:05:42.026Z,1.00
2023-05-19T10:08:10.539Z,1.08
2023-05-19T10:10:38.447Z,0.80
2023-05-19T10:13:06.375Z,1.00
2023-05-19T10:15:40.762Z,0.90
2023-05-19T10:18:15.586Z,0.90
2023-05-19T10:23:09.895Z,0.70
2023-05-19T10:25:38.276Z,0.80
2023-05-19T10:28:10.646Z,0.80
2023-05-19T10:30:42.710Z,0.73
2023-05-19T10:33:11.749Z,0.85
2023-05-19T10:35:57.773Z,0.90
2023-05-19T10:38:43.113Z,1.05
2023-05-19T10:41:13.446Z,0.70
2023-05-19T10:43:50.255Z,0.90
2023-05-19T10:46:17.612Z,1.05
2023-05-19T10:48:45.904Z,0.93
2023-05-19T10:51:13.055Z,0.70
2023-05-19T10:53:46.445Z,0.90
2023-05-19T10:56:32.992Z,0.88
2023-05-19T10:59:00.533Z,1.00
2023-05-19T11:01:31.630Z,0.80
2023-05-19T11:03:58.851Z,0.88
2023-05-19T11:06:32.956Z,0.98
2023-05-19T11:09:10.552Z,0.88
2023-05-19T11:11:53.966Z,1.02
2023-05-19T11:14:23.024Z,0.65
2023-05-19T11:16:51.696Z,0.80
2023-05-19T11:19:28.653Z,0.70
2023-05-19T11:21:56.584Z,0.82
2023-05-19T11:24:36.569Z,0.80
2023-05-19T11:27:19.212Z,0.80
2023-05-19T11:29:46.920Z,0.80
2023-05-19T11:32:14.333Z,1.23
2023-05-19T11:34:41.914Z,1.10
2023-05-19T11:37:09.194Z,0.80
2023-05-19T11:39:36.411Z,0.70
2023-05-19T11:42:03.665Z,0.90
2023-05-19T11:44:30.829Z,0.73
2023-05-19T11:46:59.265Z,0.75
2023-05-19T11:49:28.173Z,0.90
2023-05-19T11:54:22.537Z,0.80
2023-05-19T11:56:49.728Z,0.80
2023-05-19T11:59:16.859Z,0.85
2023-05-19T12:01:43.987Z,0.90
2023-05-19T12:04:11.263Z,0.75
2023-05-19T12:06:38.742Z,0.77
2023-05-19T12:09:06.530Z,0.95
2023-05-19T12:11:33.730Z,0.80
2023-05-19T12:14:01.642Z,0.90
2023-05-19T12:16:35.625Z,0.77
2023-05-19T12:19:03.141Z,0.70
2023-05-19T12:21:34.134Z,0.90
2023-05-19T12:24:02.113Z,0.85
2023-05-19T12:26:29.328Z,0.60
2023-05-19T12:28:56.568Z,0.55
2023-05-19T12:31:24.031Z,0.77
2023-05-19T12:33:52.015Z,0.90
2023-05-19T12:36:20.242Z,0.73
2023-05-19T12:38:48.502Z,0.82
2023-05-19T12:41:16.787Z,0.88
2023-05-19T12:43:43.933Z,0.65
2023-05-19T12:46:11.900Z,0.80
2023-05-19T12:48:42.381Z,0.63
2023-05-19T12:51:09.988Z,0.80
2023-05-19T12:53:38.136Z,0.88
2023-05-19T12:56:13.092Z,0.70
2023-05-19T12:58:40.610Z,0.75
2023-05-19T13:01:08.855Z,0.80
2023-05-19T13:03:41.926Z,0.60
2023-05-19T13:06:09.804Z,0.90
2023-05-19T13:08:37.675Z,0.75
2023-05-19T13:11:04.937Z,0.70
2023-05-19T13:13:32.652Z,0.82
2023-05-19T13:16:00.068Z,0.60
2023-05-19T13:18:27.703Z,0.90
2023-05-19T13:20:54.922Z,0.82
2023-05-19T13:23:22.218Z,0.80
2023-05-19T13:25:51.612Z,0.68
2023-05-19T13:28:19.050Z,0.90
2023-05-19T13:30:46.322Z,0.65
2023-05-19T13:33:15.696Z,0.85
2023-05-19T13:35:43.032Z,0.70
2023-05-19T13:38:10.927Z,0.90
2023-05-19T13:40:38.397Z,0.80
2023-05-19T13:43:05.946Z,0.90
2023-05-19T13:45:33.304Z,0.82
2023-05-19T13:48:00.663Z,0.70
2023-05-19T13:50:27.894Z,0.90
2023-05-19T13:52:55.154Z,0.70
2023-05-19T13:55:23.321Z,0.80
2023-05-19T13:57:50.930Z,0.70
2023-05-19T14:00:18.502Z,0.60
2023-05-19T14:02:45.798Z,0.98
2023-05-19T14:05:13.073Z,0.70
2023-05-19T14:07:40.269Z,0.73
2023-05-19T14:10:07.896Z,0.63
2023-05-19T14:12:49.510Z,0.77
2023-05-19T14:15:23.835Z,0.70
2023-05-19T14:17:51.268Z,0.70
2023-05-19T14:20:18.510Z,0.82
2023-05-19T14:22:45.724Z,0.63
2023-05-19T14:25:12.920Z,0.70
2023-05-19T14:27:40.519Z,0.75
2023-05-19T14:30:08.303Z,0.85
2023-05-19T14:32:35.941Z,0.70
2023-05-19T14:35:03.262Z,0.60
2023-05-19T14:37:31.858Z,0.70
2023-05-19T14:39:59.363Z,0.77
2023-05-19T14:42:26.592Z,0.70
2023-05-19T14:44:53.857Z,0.80
2023-05-19T14:47:21.363Z,0.65
2023-05-19T14:49:48.662Z,0.70
2023-05-19T14:52:15.896Z,0.70
2023-05-19T14:54:43.055Z,0.60
2023-05-19T14:57:10.274Z,0.70
2023-05-19T14:59:38.110Z,0.73
2023-05-19T15:02:05.628Z,0.70
2023-05-19T15:04:32.738Z,0.63
2023-05-19T15:07:09.653Z,0.80
2023-05-19T15:09:37.875Z,0.80
2023-05-19T15:12:05.162Z,0.90
2023-05-19T15:14:32.390Z,0.60
2023-05-19T15:16:59.896Z,0.70
2023-05-19T15:19:27.305Z,0.60
2023-05-19T15:21:54.662Z,0.80
2023-05-19T15:24:21.924Z,0.77
2023-05-19T15:26:49.275Z,0.68
2023-05-19T15:29:16.488Z,0.70
2023-05-19T15:31:43.853Z,0.80
2023-05-19T15:34:11.061Z,0.70
2023-05-19T15:36:38.223Z,0.80
2023-05-19T15:39:06.479Z,0.70
2023-05-19T15:41:33.710Z,0.70
2023-05-19T15:44:00.977Z,0.75
2023-05-19T15:46:28.311Z,0.60
2023-05-19T15:48:55.873Z,0.70
2023-05-19T15:51:23.276Z,0.88
2023-05-19T15:53:50.491Z,0.60
2023-05-19T15:56:19.359Z,0.70
2023-05-19T15:58:46.756Z,0.70
2023-05-19T16:01:14.314Z,0.60
2023-05-19T16:03:41.826Z,0.85
2023-05-19T16:06:09.099Z,0.70
2023-05-19T16:08:36.452Z,0.70
2023-05-19T16:11:03.756Z,0.60
2023-05-19T16:13:33.480Z,0.90
2023-05-19T16:16:00.773Z,0.80
2023-05-19T16:18:29.213Z,0.65
2023-05-19T16:20:56.949Z,0.70
2023-05-19T16:23:24.788Z,0.85
2023-05-19T16:25:52.382Z,0.90
2023-05-19T16:28:19.920Z,0.88
2023-05-19T16:30:47.979Z,1.00
2023-05-19T16:33:15.240Z,1.00
2023-05-19T16:35:42.465Z,0.90
2023-05-19T16:38:09.644Z,0.80
2023-05-19T16:40:37.079Z,1.02
2023-05-19T16:43:04.399Z,0.90
2023-05-19T16:45:31.602Z,0.93
2023-05-19T16:47:58.810Z,0.90
2023-05-19T16:50:25.995Z,0.80
2023-05-19T16:52:53.166Z,0.90
2023-05-19T16:55:20.656Z,0.90
2023-05-19T16:57:47.898Z,0.70
2023-05-19T17:00:15.712Z,0.93
2023-05-19T17:02:43.054Z,0.85
2023-05-19T17:05:10.296Z,0.85
2023-05-19T17:07:37.501Z,0.90
2023-05-19T17:10:04.903Z,1.00
2023-05-19T17:12:32.107Z,1.10
2023-05-19T17:14:59.341Z,1.20
2023-05-19T17:17:26.598Z,1.00
2023-05-19T17:19:53.857Z,0.98
2023-05-19T17:22:21.043Z,1.98
2023-05-19T17:24:50.726Z,1.83
2023-05-19T17:27:17.911Z,1.48
2023-05-19T17:29:45.087Z,1.75
2023-05-19T17:32:12.321Z,2.17
2023-05-19T17:34:39.513Z,1.60
2023-05-19T17:37:06.707Z,1.60
2023-05-19T17:39:33.938Z,1.75
2023-05-19T17:42:01.823Z,1.55
2023-05-19T17:44:29.003Z,1.65
2023-05-19T17:46:56.479Z,1.30
2023-05-19T17:49:25.599Z,1.65
2023-05-19T17:51:53.008Z,1.38
2023-05-19T17:54:20.475Z,1.67
2023-05-19T17:56:47.942Z,2.08
2023-05-19T17:59:15.293Z,1.98
2023-05-19T18:01:42.651Z,1.90
2023-05-19T18:04:10.117Z,2.08
2023-05-19T18:06:38.660Z,2.00
2023-05-19T18:09:09.813Z,1.58
2023-05-19T18:11:37.470Z,1.67
2023-05-19T18:14:04.736Z,1.90
2023-05-19T18:16:31.956Z,1.80
2023-05-19T18:19:00.955Z,1.80
2023-05-19T18:23:55.187Z,1.83
2023-05-19T18:26:22.541Z,1.90
2023-05-19T18:28:49.795Z,1.90
2023-05-19T18:31:19.811Z,1.80
2023-05-19T18:33:48.009Z,1.83
2023-05-19T18:36:16.560Z,2.10
2023-05-19T18:38:43.838Z,1.95
2023-05-19T18:41:11.153Z,1.70
2023-05-19T18:43:39.063Z,1.70
2023-05-19T18:46:06.767Z,2.05
2023-05-19T18:48:34.024Z,2.00
2023-05-19T18:51:03.428Z,1.70
2023-05-19T18:53:34.651Z,1.80
2023-05-19T18:56:02.198Z,1.80
2023-05-19T18:58:29.353Z,1.70
2023-05-19T19:00:56.585Z,1.88
2023-05-19T19:03:24.130Z,1.95
2023-05-19T19:05:55.150Z,1.67
2023-05-19T19:08:22.346Z,1.63
2023-05-19T19:10:51.444Z,2.20
2023-05-19T19:13:19.097Z,1.75
2023-05-19T19:15:49.344Z,2.13
2023-05-19T19:18:16.539Z,1.65
2023-05-19T19:20:43.792Z,1.67
2023-05-19T19:23:11.164Z,1.75
2023-05-19T19:25:38.546Z,1.90
2023-05-19T19:28:05.997Z,1.83
2023-05-19T19:30:33.325Z,1.75
2023-05-19T19:33:00.798Z,1.95
2023-05-19T19:35:28.193Z,1.85
2023-05-19T19:37:55.557Z,1.63
2023-05-19T19:40:22.772Z,2.05
2023-05-19T19:42:50.121Z,1.40
2023-05-19T19:45:20.596Z,1.75
2023-05-19T19:47:47.910Z,1.70
2023-05-19T19:50:15.584Z,1.83
2023-05-19T19:52:42.889Z,1.55
2023-05-19T19:55:10.672Z,1.55
2023-05-19T19:57:37.843Z,1.55
2023-05-19T20:00:08.600Z,1.50
2023-05-19T20:02:41.044Z,1.60
2023-05-19T20:05:12.989Z,1.45
2023-05-19T20:07:40.152Z,1.67
2023-05-19T20:10:07.697Z,1.75
2023-05-19T20:12:34.839Z,1.90
2023-05-19T20:15:02.124Z,1.70
2023-05-19T20:17:29.329Z,1.70
2023-05-19T20:19:56.556Z,1.73
2023-05-19T20:22:23.824Z,1.80
2023-05-19T20:24:51.012Z,1.73
2023-05-19T20:27:18.352Z,1.70
2023-05-19T20:29:47.024Z,1.67
2023-05-19T20:32:14.274Z,1.50
2023-05-19T20:34:41.882Z,1.60
2023-05-19T20:37:09.158Z,1.77
2023-05-19T20:39:36.418Z,1.70
2023-05-19T20:42:03.616Z,1.88
2023-05-19T20:44:30.834Z,1.50
2023-05-19T20:46:58.065Z,1.63
2023-05-19T20:49:25.276Z,1.70
2023-05-19T20:51:52.422Z,1.88
2023-05-19T20:54:20.260Z,1.83
2023-05-19T20:56:47.602Z,1.70
2023-05-19T20:59:14.878Z,1.80
2023-05-19T21:01:42.271Z,2.42
2023-05-19T21:04:09.758Z,1.92
2023-05-19T21:06:38.314Z,1.83
2023-05-19T21:09:06.999Z,1.60
2023-05-19T21:11:34.910Z,1.80
2023-05-19T21:14:05.050Z,2.30
2023-05-19T21:16:32.393Z,1.73
2023-05-19T21:18:59.643Z,1.90
2023-05-19T21:21:26.856Z,1.85
2023-05-19T21:23:54.064Z,1.70
2023-05-19T21:26:22.064Z,1.58
2023-05-19T21:28:49.252Z,1.65
2023-05-19T21:31:16.635Z,1.50
2023-05-19T21:33:43.891Z,1.65
2023-05-19T21:36:11.150Z,2.03
2023-05-19T21:38:38.402Z,2.17
2023-05-19T21:41:05.549Z,2.80
2023-05-19T21:43:32.705Z,2.45
2023-05-19T21:45:59.895Z,2.20
2023-05-19T21:48:27.190Z,2.35
2023-05-19T21:50:54.954Z,2.28
2023-05-19T21:53:22.199Z,2.20
2023-05-19T21:55:49.638Z,2.35
2023-05-19T21:58:17.134Z,2.33
2023-05-19T22:00:49.108Z,2.42
2023-05-19T22:03:16.679Z,2.20
2023-05-19T22:05:48.828Z,2.72
2023-05-19T22:08:16.078Z,2.33
2023-05-19T22:10:43.384Z,2.08
2023-05-19T22:13:10.831Z,2.17
2023-05-19T22:15:39.590Z,2.13
2023-05-19T22:18:07.027Z,2.95
2023-05-19T22:20:34.605Z,2.10
2023-05-19T22:23:03.683Z,2.40
2023-05-19T22:27:58.937Z,2.45
2023-05-19T22:30:26.123Z,2.78
2023-05-19T22:32:53.341Z,2.28
2023-05-19T22:35:20.581Z,2.10
2023-05-19T22:37:51.382Z,2.60
2023-05-19T22:40:18.702Z,2.67
2023-05-19T22:42:45.899Z,2.45
2023-05-19T22:45:13.221Z,2.03
2023-05-19T22:47:40.542Z,2.80
2023-05-19T22:50:10.131Z,1.98
2023-05-19T22:52:37.566Z,2.28
2023-05-19T22:55:05.105Z,2.30
2023-05-19T22:57:32.326Z,1.95
2023-05-19T23:00:00.917Z,2.00
2023-05-19T23:02:28.121Z,2.20
2023-05-19T23:04:55.617Z,1.77
2023-05-19T23:07:22.890Z,1.85
2023-05-19T23:09:50.422Z,2.42
2023-05-19T23:12:17.596Z,2.10
2023-05-19T23:14:44.902Z,2.20
2023-05-19T23:17:12.114Z,2.40
2023-05-19T23:19:39.308Z,2.00
2023-05-19T23:22:06.501Z,1.88
2023-05-19T23:24:33.641Z,2.05
2023-05-19T23:27:01.112Z,1.73
2023-05-19T23:29:28.325Z,2.22
2023-05-19T23:31:55.746Z,1.65
2023-05-19T23:34:22.995Z,1.42
2023-05-19T23:36:50.239Z,1.80
2023-05-19T23:39:17.420Z,1.60
2023-05-19T23:41:44.637Z,1.80
2023-05-19T23:44:11.894Z,1.95
2023-05-19T23:46:39.113Z,1.77
2023-05-19T23:49:06.333Z,1.50
2023-05-19T23:51:33.533Z,1.73
2023-05-19T23:54:00.973Z,2.00
2023-05-19T23:56:28.153Z,1.52
2023-05-19T23:58:55.326Z,1.85
